Decoded Metar for OINZ (DASHT-E-NAZ in IRAN) (IATA:N/A) | Meteo·Mobile Aviation Weather
aviador You're here:

OINZ Decoded Metar

DASHT-E-NAZ in IRAN
Report Time2018-10-22 10:00:00
UTC Time2018-10-22 10:08:33
Flight Rules vfr VFR
Wind300° at 08 kt
W.Decomp.*RWY 34: 5.9 kt HW 5.5 kt LCW
W.Rank300° ranks 13
Current wind is above 300° avg. (6.9)
Visibility9999 m
Phenomena:N/A
Clouds:N/A
Expected CloudBase > 4,000 ft AGL from Temp-Dew spread
CeilingNone
Temp25°C (ISA +10)
Dew Point15°C (54% RH)
AAT23.7°C
QNH1013 hPa
Density Alt1,430 ft
Elevation36 ft
Report Wrong Elevation
Raw Report
METAR OINZ 221000Z 30008KT CAVOK 25/15 Q1013=

Extra information for OINZ:More info

Metar Taf Metar & Taf Last 4 Metars F.Rules Stats Wind Profile Meteogram Temp Stats Airport Information Weather charts Add Link Nearby VenuesMetar ALERT Operation Metar Decoded Social comments